sensor_id;sensor_type;location;lat;lon;timestamp;temperature;humidity
4090;DHT22;2059;48.538;12.146;2022-07-06T00:00:18;20.30;80.60
4090;DHT22;2059;48.538;12.146;2022-07-06T00:05:20;20.20;80.20
4090;DHT22;2059;48.538;12.146;2022-07-06T00:10:21;20.30;80.30
4090;DHT22;2059;48.538;12.146;2022-07-06T00:15:25;20.30;80.40
4090;DHT22;2059;48.538;12.146;2022-07-06T00:20:27;20.20;81.10
4090;DHT22;2059;48.538;12.146;2022-07-06T00:25:29;20.10;81.50
4090;DHT22;2059;48.538;12.146;2022-07-06T00:30:32;20.10;81.20
4090;DHT22;2059;48.538;12.146;2022-07-06T00:35:34;20.00;80.50
4090;DHT22;2059;48.538;12.146;2022-07-06T00:40:36;20.00;80.30
4090;DHT22;2059;48.538;12.146;2022-07-06T00:45:39;19.80;80.90
4090;DHT22;2059;48.538;12.146;2022-07-06T00:50:41;19.70;82.20
4090;DHT22;2059;48.538;12.146;2022-07-06T00:55:43;19.80;81.00
4090;DHT22;2059;48.538;12.146;2022-07-06T01:00:46;19.80;80.30
4090;DHT22;2059;48.538;12.146;2022-07-06T01:05:50;19.60;80.40
4090;DHT22;2059;48.538;12.146;2022-07-06T01:10:52;19.50;80.60
4090;DHT22;2059;48.538;12.146;2022-07-06T01:15:55;19.30;81.00
4090;DHT22;2059;48.538;12.146;2022-07-06T01:21:09;19.30;80.90
4090;DHT22;2059;48.538;12.146;2022-07-06T01:26:12;19.20;82.10
4090;DHT22;2059;48.538;12.146;2022-07-06T01:31:15;19.20;81.70
4090;DHT22;2059;48.538;12.146;2022-07-06T01:36:20;19.10;82.10
4090;DHT22;2059;48.538;12.146;2022-07-06T01:41:21;18.90;83.30
4090;DHT22;2059;48.538;12.146;2022-07-06T01:46:23;18.80;83.90
4090;DHT22;2059;48.538;12.146;2022-07-06T01:51:27;19.00;83.70
4090;DHT22;2059;48.538;12.146;2022-07-06T01:56:28;19.00;83.70
4090;DHT22;2059;48.538;12.146;2022-07-06T02:01:30;19.00;83.40
4090;DHT22;2059;48.538;12.146;2022-07-06T02:06:34;18.90;83.50
4090;DHT22;2059;48.538;12.146;2022-07-06T02:11:36;18.80;83.80
4090;DHT22;2059;48.538;12.146;2022-07-06T02:16:37;18.80;84.00
4090;DHT22;2059;48.538;12.146;2022-07-06T02:21:41;18.50;85.00
4090;DHT22;2059;48.538;12.146;2022-07-06T02:26:42;18.60;85.10
4090;DHT22;2059;48.538;12.146;2022-07-06T02:31:44;18.60;84.90
4090;DHT22;2059;48.538;12.146;2022-07-06T02:36:48;18.50;85.90
4090;DHT22;2059;48.538;12.146;2022-07-06T02:41:49;18.40;86.30
4090;DHT22;2059;48.538;12.146;2022-07-06T02:46:51;18.40;86.10
4090;DHT22;2059;48.538;12.146;2022-07-06T02:51:54;18.40;86.10
4090;DHT22;2059;48.538;12.146;2022-07-06T02:56:56;18.30;86.60
4090;DHT22;2059;48.538;12.146;2022-07-06T03:01:58;18.20;87.20
4090;DHT22;2059;48.538;12.146;2022-07-06T03:07:01;18.20;87.10
4090;DHT22;2059;48.538;12.146;2022-07-06T03:12:04;18.10;87.80
4090;DHT22;2059;48.538;12.146;2022-07-06T03:17:06;18.00;88.30
4090;DHT22;2059;48.538;12.146;2022-07-06T03:22:09;18.00;88.90
4090;DHT22;2059;48.538;12.146;2022-07-06T03:27:11;17.90;89.50
4090;DHT22;2059;48.538;12.146;2022-07-06T03:32:13;17.80;90.00
4090;DHT22;2059;48.538;12.146;2022-07-06T03:37:16;17.90;90.50
4090;DHT22;2059;48.538;12.146;2022-07-06T03:42:18;17.80;90.40
4090;DHT22;2059;48.538;12.146;2022-07-06T03:47:20;17.90;90.20
4090;DHT22;2059;48.538;12.146;2022-07-06T03:52:23;17.90;90.00
4090;DHT22;2059;48.538;12.146;2022-07-06T03:57:25;17.90;90.40
4090;DHT22;2059;48.538;12.146;2022-07-06T04:02:27;17.80;90.80
4090;DHT22;2059;48.538;12.146;2022-07-06T04:07:30;17.70;91.00
4090;DHT22;2059;48.538;12.146;2022-07-06T04:12:32;17.80;91.10
4090;DHT22;2059;48.538;12.146;2022-07-06T04:17:40;17.80;91.40
4090;DHT22;2059;48.538;12.146;2022-07-06T04:22:55;17.80;91.30
4090;DHT22;2059;48.538;12.146;2022-07-06T04:27:57;17.80;91.60
4090;DHT22;2059;48.538;12.146;2022-07-06T04:32:59;17.80;91.80
4090;DHT22;2059;48.538;12.146;2022-07-06T04:38:02;18.00;91.80
4090;DHT22;2059;48.538;12.146;2022-07-06T04:43:05;17.90;91.80
4090;DHT22;2059;48.538;12.146;2022-07-06T04:48:07;17.80;92.40
4090;DHT22;2059;48.538;12.146;2022-07-06T04:53:10;17.90;92.40
4090;DHT22;2059;48.538;12.146;2022-07-06T04:58:12;18.00;92.70
4090;DHT22;2059;48.538;12.146;2022-07-06T05:03:14;18.00;93.10
4090;DHT22;2059;48.538;12.146;2022-07-06T05:08:17;18.10;93.10
4090;DHT22;2059;48.538;12.146;2022-07-06T05:13:19;18.20;93.10
4090;DHT22;2059;48.538;12.146;2022-07-06T05:18:21;18.20;93.30
4090;DHT22;2059;48.538;12.146;2022-07-06T05:23:24;18.30;93.30
4090;DHT22;2059;48.538;12.146;2022-07-06T05:28:26;18.40;93.50
4090;DHT22;2059;48.538;12.146;2022-07-06T05:33:28;18.50;93.50
4090;DHT22;2059;48.538;12.146;2022-07-06T05:38:32;18.70;93.60
4090;DHT22;2059;48.538;12.146;2022-07-06T05:43:35;18.90;93.40
4090;DHT22;2059;48.538;12.146;2022-07-06T05:48:37;19.00;91.80
4090;DHT22;2059;48.538;12.146;2022-07-06T05:53:58;19.10;91.70
4090;DHT22;2059;48.538;12.146;2022-07-06T05:58:59;19.30;90.50
4090;DHT22;2059;48.538;12.146;2022-07-06T06:04:01;19.40;90.20
4090;DHT22;2059;48.538;12.146;2022-07-06T06:09:04;19.60;90.20
4090;DHT22;2059;48.538;12.146;2022-07-06T06:14:06;19.80;90.20
4090;DHT22;2059;48.538;12.146;2022-07-06T06:19:08;20.10;90.10
4090;DHT22;2059;48.538;12.146;2022-07-06T06:24:11;20.30;90.00
4090;DHT22;2059;48.538;12.146;2022-07-06T06:29:13;20.50;89.30
4090;DHT22;2059;48.538;12.146;2022-07-06T06:34:15;20.70;89.10
4090;DHT22;2059;48.538;12.146;2022-07-06T06:39:18;20.60;89.10
4090;DHT22;2059;48.538;12.146;2022-07-06T06:44:20;20.70;89.00
4090;DHT22;2059;48.538;12.146;2022-07-06T06:49:23;20.90;88.50
4090;DHT22;2059;48.538;12.146;2022-07-06T06:54:26;21.10;86.60
4090;DHT22;2059;48.538;12.146;2022-07-06T06:59:28;21.40;86.30
4090;DHT22;2059;48.538;12.146;2022-07-06T07:04:30;21.40;86.30
4090;DHT22;2059;48.538;12.146;2022-07-06T07:09:33;21.50;85.60
4090;DHT22;2059;48.538;12.146;2022-07-06T07:14:35;22.00;85.00
4090;DHT22;2059;48.538;12.146;2022-07-06T07:19:37;22.30;84.20
4090;DHT22;2059;48.538;12.146;2022-07-06T07:24:41;22.50;82.00
4090;DHT22;2059;48.538;12.146;2022-07-06T07:29:42;22.60;81.10
4090;DHT22;2059;48.538;12.146;2022-07-06T07:34:44;23.00;80.90
4090;DHT22;2059;48.538;12.146;2022-07-06T07:39:48;23.30;80.60
4090;DHT22;2059;48.538;12.146;2022-07-06T07:44:50;23.40;79.90
4090;DHT22;2059;48.538;12.146;2022-07-06T07:49:52;23.50;79.10
4090;DHT22;2059;48.538;12.146;2022-07-06T07:54:55;23.60;78.00
4090;DHT22;2059;48.538;12.146;2022-07-06T07:59:57;23.90;78.30
4090;DHT22;2059;48.538;12.146;2022-07-06T08:04:59;24.20;78.20
4090;DHT22;2059;48.538;12.146;2022-07-06T08:10:02;24.50;76.40
4090;DHT22;2059;48.538;12.146;2022-07-06T08:15:05;24.60;76.10
4090;DHT22;2059;48.538;12.146;2022-07-06T08:20:08;24.70;75.60
4090;DHT22;2059;48.538;12.146;2022-07-06T08:25:12;24.70;74.00
4090;DHT22;2059;48.538;12.146;2022-07-06T08:30:14;24.90;72.70
4090;DHT22;2059;48.538;12.146;2022-07-06T08:35:15;25.00;73.60
4090;DHT22;2059;48.538;12.146;2022-07-06T08:40:19;25.10;74.30
4090;DHT22;2059;48.538;12.146;2022-07-06T08:45:21;25.40;72.00
4090;DHT22;2059;48.538;12.146;2022-07-06T08:50:25;25.60;72.60
4090;DHT22;2059;48.538;12.146;2022-07-06T08:55:28;25.80;71.80
4090;DHT22;2059;48.538;12.146;2022-07-06T09:00:32;25.90;71.50
4090;DHT22;2059;48.538;12.146;2022-07-06T09:05:34;26.10;70.10
4090;DHT22;2059;48.538;12.146;2022-07-06T09:10:39;26.20;69.00
4090;DHT22;2059;48.538;12.146;2022-07-06T09:15:40;26.30;70.00
4090;DHT22;2059;48.538;12.146;2022-07-06T09:20:42;26.50;69.60
4090;DHT22;2059;48.538;12.146;2022-07-06T09:25:48;26.60;68.90
4090;DHT22;2059;48.538;12.146;2022-07-06T09:30:54;26.80;69.10
4090;DHT22;2059;48.538;12.146;2022-07-06T09:35:56;27.10;68.60
4090;DHT22;2059;48.538;12.146;2022-07-06T09:41:02;27.20;68.10
4090;DHT22;2059;48.538;12.146;2022-07-06T09:46:04;27.40;66.30
4090;DHT22;2059;48.538;12.146;2022-07-06T09:51:06;27.60;66.10
4090;DHT22;2059;48.538;12.146;2022-07-06T09:56:10;27.80;66.70
4090;DHT22;2059;48.538;12.146;2022-07-06T10:01:25;28.00;65.40
4090;DHT22;2059;48.538;12.146;2022-07-06T10:06:27;27.80;64.50
4090;DHT22;2059;48.538;12.146;2022-07-06T10:11:32;27.40;64.80
4090;DHT22;2059;48.538;12.146;2022-07-06T10:16:36;26.90;63.90
4090;DHT22;2059;48.538;12.146;2022-07-06T10:21:39;27.30;63.20
4090;DHT22;2059;48.538;12.146;2022-07-06T10:26:43;27.60;63.00
4090;DHT22;2059;48.538;12.146;2022-07-06T10:31:46;27.90;63.60
4090;DHT22;2059;48.538;12.146;2022-07-06T10:36:51;28.00;63.70
4090;DHT22;2059;48.538;12.146;2022-07-06T10:41:55;28.20;62.80
4090;DHT22;2059;48.538;12.146;2022-07-06T10:46:58;28.30;61.50
4090;DHT22;2059;48.538;12.146;2022-07-06T10:52:00;28.50;60.80
4090;DHT22;2059;48.538;12.146;2022-07-06T10:57:08;28.30;61.30
4090;DHT22;2059;48.538;12.146;2022-07-06T11:02:12;28.20;60.90
4090;DHT22;2059;48.538;12.146;2022-07-06T11:07:16;28.50;57.50
4090;DHT22;2059;48.538;12.146;2022-07-06T11:12:20;28.70;55.30
4090;DHT22;2059;48.538;12.146;2022-07-06T11:17:22;28.60;55.30
4090;DHT22;2059;48.538;12.146;2022-07-06T11:22:26;28.50;52.50
4090;DHT22;2059;48.538;12.146;2022-07-06T11:27:34;28.20;54.70
4090;DHT22;2059;48.538;12.146;2022-07-06T11:32:36;28.00;55.60
4090;DHT22;2059;48.538;12.146;2022-07-06T11:37:38;28.40;57.10
4090;DHT22;2059;48.538;12.146;2022-07-06T11:42:52;28.20;53.70
4090;DHT22;2059;48.538;12.146;2022-07-06T11:48:09;28.40;54.60
4090;DHT22;2059;48.538;12.146;2022-07-06T11:53:14;28.50;54.10
4090;DHT22;2059;48.538;12.146;2022-07-06T11:58:20;28.10;56.10
4090;DHT22;2059;48.538;12.146;2022-07-06T12:03:23;27.60;55.70
4090;DHT22;2059;48.538;12.146;2022-07-06T12:08:25;28.00;56.30
4090;DHT22;2059;48.538;12.146;2022-07-06T12:13:36;27.90;55.90
4090;DHT22;2059;48.538;12.146;2022-07-06T12:18:39;27.40;56.20
4090;DHT22;2059;48.538;12.146;2022-07-06T12:23:45;27.20;55.90
4090;DHT22;2059;48.538;12.146;2022-07-06T12:28:59;27.40;57.50
4090;DHT22;2059;48.538;12.146;2022-07-06T12:34:01;27.80;57.30
4090;DHT22;2059;48.538;12.146;2022-07-06T12:39:11;27.90;57.70
4090;DHT22;2059;48.538;12.146;2022-07-06T12:44:17;27.90;57.70
4090;DHT22;2059;48.538;12.146;2022-07-06T12:49:21;28.20;55.70
4090;DHT22;2059;48.538;12.146;2022-07-06T12:54:25;28.20;53.50
4090;DHT22;2059;48.538;12.146;2022-07-06T12:59:29;28.20;56.00
4090;DHT22;2059;48.538;12.146;2022-07-06T13:04:31;28.30;56.40
4090;DHT22;2059;48.538;12.146;2022-07-06T13:09:33;28.40;56.40
4090;DHT22;2059;48.538;12.146;2022-07-06T13:14:37;28.40;57.30
4090;DHT22;2059;48.538;12.146;2022-07-06T13:19:39;28.40;56.80
4090;DHT22;2059;48.538;12.146;2022-07-06T13:24:41;28.50;56.20
4090;DHT22;2059;48.538;12.146;2022-07-06T13:29:44;28.60;56.00
4090;DHT22;2059;48.538;12.146;2022-07-06T13:34:46;28.70;54.10
4090;DHT22;2059;48.538;12.146;2022-07-06T13:39:48;28.80;55.40
4090;DHT22;2059;48.538;12.146;2022-07-06T13:44:51;28.80;52.80
4090;DHT22;2059;48.538;12.146;2022-07-06T13:49:53;28.80;51.10
4090;DHT22;2059;48.538;12.146;2022-07-06T13:54:55;28.60;51.60
4090;DHT22;2059;48.538;12.146;2022-07-06T13:59:58;28.50;51.20
4090;DHT22;2059;48.538;12.146;2022-07-06T14:05:00;28.60;50.10
4090;DHT22;2059;48.538;12.146;2022-07-06T14:10:02;28.40;53.20
4090;DHT22;2059;48.538;12.146;2022-07-06T14:15:07;28.60;49.20
4090;DHT22;2059;48.538;12.146;2022-07-06T14:20:10;28.50;51.20
4090;DHT22;2059;48.538;12.146;2022-07-06T14:25:12;28.60;53.00
4090;DHT22;2059;48.538;12.146;2022-07-06T14:30:15;28.60;50.20
4090;DHT22;2059;48.538;12.146;2022-07-06T14:35:17;28.40;52.10
4090;DHT22;2059;48.538;12.146;2022-07-06T14:40:18;28.60;49.10
4090;DHT22;2059;48.538;12.146;2022-07-06T14:45:22;28.70;51.40
4090;DHT22;2059;48.538;12.146;2022-07-06T14:50:25;28.90;49.50
4090;DHT22;2059;48.538;12.146;2022-07-06T14:55:26;28.50;51.90
4090;DHT22;2059;48.538;12.146;2022-07-06T15:00:30;28.50;51.20
4090;DHT22;2059;48.538;12.146;2022-07-06T15:05:32;28.90;54.40
4090;DHT22;2059;48.538;12.146;2022-07-06T15:10:34;29.10;53.50
4090;DHT22;2059;48.538;12.146;2022-07-06T15:15:37;28.70;54.60
4090;DHT22;2059;48.538;12.146;2022-07-06T15:20:39;29.00;54.10
4090;DHT22;2059;48.538;12.146;2022-07-06T15:25:41;29.30;52.10
4090;DHT22;2059;48.538;12.146;2022-07-06T15:30:44;29.60;54.20
4090;DHT22;2059;48.538;12.146;2022-07-06T15:35:46;29.80;49.70
4090;DHT22;2059;48.538;12.146;2022-07-06T15:40:48;29.60;52.80
4090;DHT22;2059;48.538;12.146;2022-07-06T15:45:58;29.80;51.60
4090;DHT22;2059;48.538;12.146;2022-07-06T15:51:01;30.30;51.50
4090;DHT22;2059;48.538;12.146;2022-07-06T15:56:03;30.70;50.50
4090;DHT22;2059;48.538;12.146;2022-07-06T16:01:06;31.00;50.70
4090;DHT22;2059;48.538;12.146;2022-07-06T16:06:08;31.40;50.40
4090;DHT22;2059;48.538;12.146;2022-07-06T16:11:11;32.40;48.60
4090;DHT22;2059;48.538;12.146;2022-07-06T16:16:14;32.30;46.40
4090;DHT22;2059;48.538;12.146;2022-07-06T16:21:16;33.20;46.40
4090;DHT22;2059;48.538;12.146;2022-07-06T16:26:18;33.60;44.60
4090;DHT22;2059;48.538;12.146;2022-07-06T16:31:21;38.80;41.10
4090;DHT22;2059;48.538;12.146;2022-07-06T16:36:23;43.30;34.80
4090;DHT22;2059;48.538;12.146;2022-07-06T16:41:25;46.30;30.00
4090;DHT22;2059;48.538;12.146;2022-07-06T16:46:38;48.00;27.40
4090;DHT22;2059;48.538;12.146;2022-07-06T16:51:40;49.30;26.20
4090;DHT22;2059;48.538;12.146;2022-07-06T16:56:42;49.40;25.70
4090;DHT22;2059;48.538;12.146;2022-07-06T17:01:45;49.20;25.90
4090;DHT22;2059;48.538;12.146;2022-07-06T17:06:47;48.50;25.60
4090;DHT22;2059;48.538;12.146;2022-07-06T17:11:49;48.00;25.90
4090;DHT22;2059;48.538;12.146;2022-07-06T17:16:56;46.70;26.00
4090;DHT22;2059;48.538;12.146;2022-07-06T17:22:02;44.80;26.40
4090;DHT22;2059;48.538;12.146;2022-07-06T17:27:04;38.50;29.20
4090;DHT22;2059;48.538;12.146;2022-07-06T17:32:08;34.30;34.20
4090;DHT22;2059;48.538;12.146;2022-07-06T17:37:10;31.90;37.30
4090;DHT22;2059;48.538;12.146;2022-07-06T17:42:12;30.40;39.80
4090;DHT22;2059;48.538;12.146;2022-07-06T17:47:16;29.50;41.50
4090;DHT22;2059;48.538;12.146;2022-07-06T17:52:39;28.70;42.70
4090;DHT22;2059;48.538;12.146;2022-07-06T17:57:41;28.20;44.60
4090;DHT22;2059;48.538;12.146;2022-07-06T18:02:44;27.70;46.00
4090;DHT22;2059;48.538;12.146;2022-07-06T18:07:46;27.20;46.40
4090;DHT22;2059;48.538;12.146;2022-07-06T18:12:48;26.90;46.20
4090;DHT22;2059;48.538;12.146;2022-07-06T18:17:52;26.70;47.60
4090;DHT22;2059;48.538;12.146;2022-07-06T18:22:55;26.30;48.00
4090;DHT22;2059;48.538;12.146;2022-07-06T18:27:56;26.10;48.80
4090;DHT22;2059;48.538;12.146;2022-07-06T18:33:00;25.90;48.60
4090;DHT22;2059;48.538;12.146;2022-07-06T18:38:02;25.70;49.10
4090;DHT22;2059;48.538;12.146;2022-07-06T18:43:04;25.60;49.90
4090;DHT22;2059;48.538;12.146;2022-07-06T18:48:08;25.50;50.70
4090;DHT22;2059;48.538;12.146;2022-07-06T18:53:12;25.30;51.20
4090;DHT22;2059;48.538;12.146;2022-07-06T18:58:16;25.20;52.00
4090;DHT22;2059;48.538;12.146;2022-07-06T19:03:19;25.00;52.00
4090;DHT22;2059;48.538;12.146;2022-07-06T19:08:20;24.80;52.80
4090;DHT22;2059;48.538;12.146;2022-07-06T19:13:22;24.70;53.40
4090;DHT22;2059;48.538;12.146;2022-07-06T19:18:25;24.60;53.10
4090;DHT22;2059;48.538;12.146;2022-07-06T19:23:27;24.40;53.90
4090;DHT22;2059;48.538;12.146;2022-07-06T19:28:30;24.40;54.90
4090;DHT22;2059;48.538;12.146;2022-07-06T19:33:33;24.20;54.40
4090;DHT22;2059;48.538;12.146;2022-07-06T19:38:35;24.10;54.70
4090;DHT22;2059;48.538;12.146;2022-07-06T19:43:37;24.00;54.40
4090;DHT22;2059;48.538;12.146;2022-07-06T19:48:41;23.80;55.20
4090;DHT22;2059;48.538;12.146;2022-07-06T19:53:42;23.80;55.10
4090;DHT22;2059;48.538;12.146;2022-07-06T19:58:49;23.60;56.30
4090;DHT22;2059;48.538;12.146;2022-07-06T20:03:52;23.50;57.20
4090;DHT22;2059;48.538;12.146;2022-07-06T20:08:54;23.50;57.00
4090;DHT22;2059;48.538;12.146;2022-07-06T20:13:56;23.50;56.70
4090;DHT22;2059;48.538;12.146;2022-07-06T20:18:59;23.40;57.30
4090;DHT22;2059;48.538;12.146;2022-07-06T20:24:01;23.30;57.20
4090;DHT22;2059;48.538;12.146;2022-07-06T20:29:05;23.30;57.60
4090;DHT22;2059;48.538;12.146;2022-07-06T20:34:08;23.40;57.50
4090;DHT22;2059;48.538;12.146;2022-07-06T20:39:10;23.30;57.30
4090;DHT22;2059;48.538;12.146;2022-07-06T20:44:12;23.10;57.60
4090;DHT22;2059;48.538;12.146;2022-07-06T20:49:15;23.10;57.90
4090;DHT22;2059;48.538;12.146;2022-07-06T20:54:17;23.10;58.00
4090;DHT22;2059;48.538;12.146;2022-07-06T20:59:19;22.90;59.00
4090;DHT22;2059;48.538;12.146;2022-07-06T21:04:22;22.90;58.80
4090;DHT22;2059;48.538;12.146;2022-07-06T21:09:24;22.80;58.40
4090;DHT22;2059;48.538;12.146;2022-07-06T21:14:26;22.70;58.50
4090;DHT22;2059;48.538;12.146;2022-07-06T21:19:29;22.80;58.30
4090;DHT22;2059;48.538;12.146;2022-07-06T21:24:31;22.80;58.30
4090;DHT22;2059;48.538;12.146;2022-07-06T21:29:32;22.70;58.40
4090;DHT22;2059;48.538;12.146;2022-07-06T21:34:36;22.60;58.50
4090;DHT22;2059;48.538;12.146;2022-07-06T21:39:38;22.50;58.50
4090;DHT22;2059;48.538;12.146;2022-07-06T21:44:40;22.40;58.80
4090;DHT22;2059;48.538;12.146;2022-07-06T21:49:43;22.40;58.80
4090;DHT22;2059;48.538;12.146;2022-07-06T21:54:45;22.30;59.70
4090;DHT22;2059;48.538;12.146;2022-07-06T21:59:47;22.20;60.00
4090;DHT22;2059;48.538;12.146;2022-07-06T22:04:50;22.30;58.80
4090;DHT22;2059;48.538;12.146;2022-07-06T22:09:52;22.40;58.90
4090;DHT22;2059;48.538;12.146;2022-07-06T22:14:54;22.30;58.90
4090;DHT22;2059;48.538;12.146;2022-07-06T22:19:57;22.20;58.60
4090;DHT22;2059;48.538;12.146;2022-07-06T22:24:59;22.30;58.70
4090;DHT22;2059;48.538;12.146;2022-07-06T22:30:01;22.20;59.00
4090;DHT22;2059;48.538;12.146;2022-07-06T22:35:05;22.10;60.00
4090;DHT22;2059;48.538;12.146;2022-07-06T22:40:07;22.00;60.60
4090;DHT22;2059;48.538;12.146;2022-07-06T22:45:27;21.90;60.70
4090;DHT22;2059;48.538;12.146;2022-07-06T22:50:30;21.80;61.10
4090;DHT22;2059;48.538;12.146;2022-07-06T22:55:32;21.80;61.00
4090;DHT22;2059;48.538;12.146;2022-07-06T23:00:34;21.80;61.20
4090;DHT22;2059;48.538;12.146;2022-07-06T23:05:37;21.80;61.30
4090;DHT22;2059;48.538;12.146;2022-07-06T23:10:39;21.70;61.50
4090;DHT22;2059;48.538;12.146;2022-07-06T23:15:41;21.60;61.90
4090;DHT22;2059;48.538;12.146;2022-07-06T23:20:44;21.60;62.00
4090;DHT22;2059;48.538;12.146;2022-07-06T23:25:46;21.60;61.80
4090;DHT22;2059;48.538;12.146;2022-07-06T23:30:48;21.50;62.30
4090;DHT22;2059;48.538;12.146;2022-07-06T23:35:52;21.50;62.40
4090;DHT22;2059;48.538;12.146;2022-07-06T23:40:53;21.50;62.90
4090;DHT22;2059;48.538;12.146;2022-07-06T23:45:55;21.40;63.00
4090;DHT22;2059;48.538;12.146;2022-07-06T23:50:58;21.40;63.10
4090;DHT22;2059;48.538;12.146;2022-07-06T23:56:00;21.30;62.70
